sensor_id;sensor_type;location;lat;lon;timestamp;P1;durP1;ratioP1;P2;durP2;ratioP2
17662;SDS011;8950;56.892;15.090;2023-06-22T00:00:32;8.27;;;4.82;;
17662;SDS011;8950;56.892;15.090;2023-06-22T00:02:59;5.10;;;4.60;;
17662;SDS011;8950;56.892;15.090;2023-06-22T00:05:26;6.20;;;4.70;;
17662;SDS011;8950;56.892;15.090;2023-06-22T00:07:52;5.40;;;4.75;;
17662;SDS011;8950;56.892;15.090;2023-06-22T00:10:19;5.70;;;4.15;;
17662;SDS011;8950;56.892;15.090;2023-06-22T00:12:45;5.68;;;4.60;;
17662;SDS011;8950;56.892;15.090;2023-06-22T00:15:11;5.00;;;4.53;;
17662;SDS011;8950;56.892;15.090;2023-06-22T00:17:38;5.63;;;4.43;;
17662;SDS011;8950;56.892;15.090;2023-06-22T00:20:07;5.72;;;4.30;;
17662;SDS011;8950;56.892;15.090;2023-06-22T00:22:35;6.28;;;4.38;;
17662;SDS011;8950;56.892;15.090;2023-06-22T00:25:04;6.07;;;4.60;;
17662;SDS011;8950;56.892;15.090;2023-06-22T00:27:30;6.50;;;4.20;;
17662;SDS011;8950;56.892;15.090;2023-06-22T00:29:57;5.72;;;3.92;;
17662;SDS011;8950;56.892;15.090;2023-06-22T00:32:23;4.97;;;3.63;;
17662;SDS011;8950;56.892;15.090;2023-06-22T00:34:50;4.63;;;2.90;;
17662;SDS011;8950;56.892;15.090;2023-06-22T00:37:17;4.15;;;3.03;;
17662;SDS011;8950;56.892;15.090;2023-06-22T00:39:44;3.10;;;2.65;;
17662;SDS011;8950;56.892;15.090;2023-06-22T00:42:10;4.07;;;2.63;;
17662;SDS011;8950;56.892;15.090;2023-06-22T00:44:37;3.13;;;2.30;;
17662;SDS011;8950;56.892;15.090;2023-06-22T00:47:03;2.58;;;2.35;;
17662;SDS011;8950;56.892;15.090;2023-06-22T00:49:31;4.00;;;2.60;;
17662;SDS011;8950;56.892;15.090;2023-06-22T00:51:58;2.30;;;2.20;;
17662;SDS011;8950;56.892;15.090;2023-06-22T00:54:26;4.30;;;2.28;;
17662;SDS011;8950;56.892;15.090;2023-06-22T00:56:53;3.97;;;2.53;;
17662;SDS011;8950;56.892;15.090;2023-06-22T00:59:21;4.70;;;2.75;;
17662;SDS011;8950;56.892;15.090;2023-06-22T01:01:47;3.50;;;2.50;;
17662;SDS011;8950;56.892;15.090;2023-06-22T01:04:14;2.95;;;2.70;;
17662;SDS011;8950;56.892;15.090;2023-06-22T01:06:44;2.72;;;2.33;;
17662;SDS011;8950;56.892;15.090;2023-06-22T01:09:12;2.72;;;2.10;;
17662;SDS011;8950;56.892;15.090;2023-06-22T01:11:44;3.10;;;2.22;;
17662;SDS011;8950;56.892;15.090;2023-06-22T01:14:12;3.42;;;2.35;;
17662;SDS011;8950;56.892;15.090;2023-06-22T01:16:40;4.43;;;2.53;;
17662;SDS011;8950;56.892;15.090;2023-06-22T01:19:09;3.08;;;2.63;;
17662;SDS011;8950;56.892;15.090;2023-06-22T01:21:39;3.63;;;2.75;;
17662;SDS011;8950;56.892;15.090;2023-06-22T01:24:11;4.72;;;2.83;;
17662;SDS011;8950;56.892;15.090;2023-06-22T01:26:43;3.35;;;2.80;;
17662;SDS011;8950;56.892;15.090;2023-06-22T01:29:14;4.15;;;2.60;;
17662;SDS011;8950;56.892;15.090;2023-06-22T01:31:41;3.72;;;2.63;;
17662;SDS011;8950;56.892;15.090;2023-06-22T01:34:08;4.18;;;2.53;;
17662;SDS011;8950;56.892;15.090;2023-06-22T01:36:35;4.53;;;2.63;;
17662;SDS011;8950;56.892;15.090;2023-06-22T01:39:02;4.20;;;2.85;;
17662;SDS011;8950;56.892;15.090;2023-06-22T01:41:30;5.22;;;2.63;;
17662;SDS011;8950;56.892;15.090;2023-06-22T01:43:56;3.28;;;2.78;;
17662;SDS011;8950;56.892;15.090;2023-06-22T01:46:24;4.03;;;2.90;;
17662;SDS011;8950;56.892;15.090;2023-06-22T01:48:51;4.43;;;3.05;;
17662;SDS011;8950;56.892;15.090;2023-06-22T01:51:17;3.30;;;3.00;;
17662;SDS011;8950;56.892;15.090;2023-06-22T01:53:44;5.60;;;2.80;;
17662;SDS011;8950;56.892;15.090;2023-06-22T01:56:10;4.80;;;3.05;;
17662;SDS011;8950;56.892;15.090;2023-06-22T01:58:40;4.20;;;2.90;;
17662;SDS011;8950;56.892;15.090;2023-06-22T02:01:09;4.63;;;2.95;;
17662;SDS011;8950;56.892;15.090;2023-06-22T02:03:38;4.28;;;3.42;;
17662;SDS011;8950;56.892;15.090;2023-06-22T02:06:07;4.63;;;3.20;;
17662;SDS011;8950;56.892;15.090;2023-06-22T02:08:36;4.10;;;3.53;;
17662;SDS011;8950;56.892;15.090;2023-06-22T02:11:04;3.50;;;3.20;;
17662;SDS011;8950;56.892;15.090;2023-06-22T02:13:32;3.58;;;2.95;;
17662;SDS011;8950;56.892;15.090;2023-06-22T02:15:59;3.38;;;3.08;;
17662;SDS011;8950;56.892;15.090;2023-06-22T02:18:26;5.93;;;3.20;;
17662;SDS011;8950;56.892;15.090;2023-06-22T02:20:54;4.38;;;3.50;;
17662;SDS011;8950;56.892;15.090;2023-06-22T02:23:20;3.40;;;3.05;;
17662;SDS011;8950;56.892;15.090;2023-06-22T02:25:47;4.40;;;3.28;;
17662;SDS011;8950;56.892;15.090;2023-06-22T02:28:14;5.35;;;3.72;;
17662;SDS011;8950;56.892;15.090;2023-06-22T02:30:40;4.78;;;3.60;;
17662;SDS011;8950;56.892;15.090;2023-06-22T02:33:07;4.03;;;3.33;;
17662;SDS011;8950;56.892;15.090;2023-06-22T02:35:33;4.32;;;2.97;;
17662;SDS011;8950;56.892;15.090;2023-06-22T02:38:02;4.20;;;3.40;;
17662;SDS011;8950;56.892;15.090;2023-06-22T02:40:29;4.78;;;3.45;;
17662;SDS011;8950;56.892;15.090;2023-06-22T02:42:56;4.18;;;3.20;;
17662;SDS011;8950;56.892;15.090;2023-06-22T02:45:23;3.83;;;3.20;;
17662;SDS011;8950;56.892;15.090;2023-06-22T02:47:49;4.00;;;3.13;;
17662;SDS011;8950;56.892;15.090;2023-06-22T02:50:16;4.30;;;3.40;;
17662;SDS011;8950;56.892;15.090;2023-06-22T02:52:42;3.97;;;3.50;;
17662;SDS011;8950;56.892;15.090;2023-06-22T02:55:10;3.55;;;3.00;;
17662;SDS011;8950;56.892;15.090;2023-06-22T02:57:36;4.18;;;3.58;;
17662;SDS011;8950;56.892;15.090;2023-06-22T03:00:03;5.65;;;3.22;;
17662;SDS011;8950;56.892;15.090;2023-06-22T03:02:41;3.92;;;3.60;;
17662;SDS011;8950;56.892;15.090;2023-06-22T03:05:08;4.15;;;3.42;;
17662;SDS011;8950;56.892;15.090;2023-06-22T03:07:39;5.75;;;3.70;;
17662;SDS011;8950;56.892;15.090;2023-06-22T03:10:06;6.50;;;4.03;;
17662;SDS011;8950;56.892;15.090;2023-06-22T03:12:33;4.82;;;3.88;;
17662;SDS011;8950;56.892;15.090;2023-06-22T03:15:00;3.60;;;3.28;;
17662;SDS011;8950;56.892;15.090;2023-06-22T03:17:26;6.40;;;3.40;;
17662;SDS011;8950;56.892;15.090;2023-06-22T03:19:53;5.65;;;3.03;;
17662;SDS011;8950;56.892;15.090;2023-06-22T03:22:20;4.28;;;3.88;;
17662;SDS011;8950;56.892;15.090;2023-06-22T03:24:46;5.63;;;3.60;;
17662;SDS011;8950;56.892;15.090;2023-06-22T03:27:12;4.60;;;3.72;;
17662;SDS011;8950;56.892;15.090;2023-06-22T03:29:40;4.65;;;3.53;;
17662;SDS011;8950;56.892;15.090;2023-06-22T03:32:07;5.05;;;3.58;;
17662;SDS011;8950;56.892;15.090;2023-06-22T03:34:33;4.60;;;4.07;;
17662;SDS011;8950;56.892;15.090;2023-06-22T03:37:02;5.07;;;3.78;;
17662;SDS011;8950;56.892;15.090;2023-06-22T03:39:28;4.00;;;3.60;;
17662;SDS011;8950;56.892;15.090;2023-06-22T03:41:55;5.05;;;3.63;;
17662;SDS011;8950;56.892;15.090;2023-06-22T03:44:21;4.35;;;3.65;;
17662;SDS011;8950;56.892;15.090;2023-06-22T03:46:49;5.20;;;3.63;;
17662;SDS011;8950;56.892;15.090;2023-06-22T03:49:15;4.18;;;3.80;;
17662;SDS011;8950;56.892;15.090;2023-06-22T03:51:42;4.82;;;3.53;;
17662;SDS011;8950;56.892;15.090;2023-06-22T03:54:08;5.00;;;4.03;;
17662;SDS011;8950;56.892;15.090;2023-06-22T03:56:34;3.90;;;3.45;;
17662;SDS011;8950;56.892;15.090;2023-06-22T03:59:01;4.65;;;4.10;;
17662;SDS011;8950;56.892;15.090;2023-06-22T04:01:28;4.18;;;3.80;;
17662;SDS011;8950;56.892;15.090;2023-06-22T04:03:56;4.57;;;4.03;;
17662;SDS011;8950;56.892;15.090;2023-06-22T04:06:22;5.47;;;3.63;;
17662;SDS011;8950;56.892;15.090;2023-06-22T04:08:49;4.60;;;3.97;;
17662;SDS011;8950;56.892;15.090;2023-06-22T04:11:16;5.13;;;3.65;;
17662;SDS011;8950;56.892;15.090;2023-06-22T04:13:42;3.65;;;3.20;;
17662;SDS011;8950;56.892;15.090;2023-06-22T04:16:09;6.32;;;3.97;;
17662;SDS011;8950;56.892;15.090;2023-06-22T04:18:35;4.55;;;3.42;;
17662;SDS011;8950;56.892;15.090;2023-06-22T04:21:03;5.43;;;4.03;;
17662;SDS011;8950;56.892;15.090;2023-06-22T04:23:30;5.10;;;3.63;;
17662;SDS011;8950;56.892;15.090;2023-06-22T04:25:56;4.43;;;3.30;;
17662;SDS011;8950;56.892;15.090;2023-06-22T04:28:22;4.30;;;3.72;;
17662;SDS011;8950;56.892;15.090;2023-06-22T04:30:49;6.07;;;4.03;;
17662;SDS011;8950;56.892;15.090;2023-06-22T04:33:16;5.13;;;3.80;;
17662;SDS011;8950;56.892;15.090;2023-06-22T04:35:44;5.43;;;3.58;;
17662;SDS011;8950;56.892;15.090;2023-06-22T04:38:12;6.63;;;3.92;;
17662;SDS011;8950;56.892;15.090;2023-06-22T04:40:39;4.13;;;3.40;;
17662;SDS011;8950;56.892;15.090;2023-06-22T04:43:05;5.90;;;4.10;;
17662;SDS011;8950;56.892;15.090;2023-06-22T04:45:32;4.75;;;3.67;;
17662;SDS011;8950;56.892;15.090;2023-06-22T04:47:58;5.80;;;4.13;;
17662;SDS011;8950;56.892;15.090;2023-06-22T04:50:25;4.28;;;3.88;;
17662;SDS011;8950;56.892;15.090;2023-06-22T04:52:51;4.25;;;3.72;;
17662;SDS011;8950;56.892;15.090;2023-06-22T04:55:19;5.07;;;3.83;;
17662;SDS011;8950;56.892;15.090;2023-06-22T04:57:46;5.00;;;3.85;;
17662;SDS011;8950;56.892;15.090;2023-06-22T05:00:14;5.28;;;3.90;;
17662;SDS011;8950;56.892;15.090;2023-06-22T05:02:42;4.80;;;3.75;;
17662;SDS011;8950;56.892;15.090;2023-06-22T05:05:09;4.55;;;3.65;;
17662;SDS011;8950;56.892;15.090;2023-06-22T05:07:38;5.10;;;4.03;;
17662;SDS011;8950;56.892;15.090;2023-06-22T05:10:07;5.10;;;3.85;;
17662;SDS011;8950;56.892;15.090;2023-06-22T05:12:35;6.55;;;3.63;;
17662;SDS011;8950;56.892;15.090;2023-06-22T05:15:02;5.47;;;4.05;;
17662;SDS011;8950;56.892;15.090;2023-06-22T05:17:28;5.15;;;4.07;;
17662;SDS011;8950;56.892;15.090;2023-06-22T05:19:54;5.18;;;3.90;;
17662;SDS011;8950;56.892;15.090;2023-06-22T05:22:21;7.90;;;4.40;;
17662;SDS011;8950;56.892;15.090;2023-06-22T05:24:47;5.28;;;4.20;;
17662;SDS011;8950;56.892;15.090;2023-06-22T05:27:14;5.60;;;4.18;;
17662;SDS011;8950;56.892;15.090;2023-06-22T05:29:41;5.60;;;4.03;;
17662;SDS011;8950;56.892;15.090;2023-06-22T05:32:08;4.63;;;3.53;;
17662;SDS011;8950;56.892;15.090;2023-06-22T05:34:35;4.25;;;3.85;;
17662;SDS011;8950;56.892;15.090;2023-06-22T05:37:02;4.70;;;3.55;;
17662;SDS011;8950;56.892;15.090;2023-06-22T05:39:29;6.63;;;3.95;;
17662;SDS011;8950;56.892;15.090;2023-06-22T05:41:55;5.32;;;3.85;;
17662;SDS011;8950;56.892;15.090;2023-06-22T05:44:22;5.10;;;3.88;;
17662;SDS011;8950;56.892;15.090;2023-06-22T05:46:49;5.13;;;4.00;;
17662;SDS011;8950;56.892;15.090;2023-06-22T05:49:16;6.28;;;4.20;;
17662;SDS011;8950;56.892;15.090;2023-06-22T05:51:42;5.28;;;3.83;;
17662;SDS011;8950;56.892;15.090;2023-06-22T05:54:08;5.72;;;3.80;;
17662;SDS011;8950;56.892;15.090;2023-06-22T05:56:35;6.28;;;4.22;;
17662;SDS011;8950;56.892;15.090;2023-06-22T05:59:01;6.35;;;4.10;;
17662;SDS011;8950;56.892;15.090;2023-06-22T06:01:28;4.63;;;3.88;;
17662;SDS011;8950;56.892;15.090;2023-06-22T06:04:01;5.53;;;3.78;;
17662;SDS011;8950;56.892;15.090;2023-06-22T06:06:27;3.15;;;2.85;;
17662;SDS011;8950;56.892;15.090;2023-06-22T06:08:54;10.48;;;3.60;;
17662;SDS011;8950;56.892;15.090;2023-06-22T06:11:21;5.38;;;3.58;;
17662;SDS011;8950;56.892;15.090;2023-06-22T06:13:47;3.70;;;3.33;;
17662;SDS011;8950;56.892;15.090;2023-06-22T06:16:13;6.03;;;3.10;;
17662;SDS011;8950;56.892;15.090;2023-06-22T06:18:40;6.28;;;3.50;;
17662;SDS011;8950;56.892;15.090;2023-06-22T06:21:08;6.20;;;3.80;;
17662;SDS011;8950;56.892;15.090;2023-06-22T06:23:34;3.97;;;3.22;;
17662;SDS011;8950;56.892;15.090;2023-06-22T06:26:00;5.53;;;3.53;;
17662;SDS011;8950;56.892;15.090;2023-06-22T06:28:27;6.55;;;3.63;;
17662;SDS011;8950;56.892;15.090;2023-06-22T06:30:53;4.53;;;3.65;;
17662;SDS011;8950;56.892;15.090;2023-06-22T06:33:20;4.35;;;3.75;;
17662;SDS011;8950;56.892;15.090;2023-06-22T06:35:46;5.07;;;3.80;;
17662;SDS011;8950;56.892;15.090;2023-06-22T06:38:14;4.90;;;4.00;;
17662;SDS011;8950;56.892;15.090;2023-06-22T06:40:40;5.85;;;3.72;;
17662;SDS011;8950;56.892;15.090;2023-06-22T06:43:07;5.43;;;3.97;;
17662;SDS011;8950;56.892;15.090;2023-06-22T06:45:33;5.28;;;3.78;;
17662;SDS011;8950;56.892;15.090;2023-06-22T06:47:59;4.40;;;3.53;;
17662;SDS011;8950;56.892;15.090;2023-06-22T06:50:26;4.15;;;3.47;;
17662;SDS011;8950;56.892;15.090;2023-06-22T06:52:52;7.40;;;4.20;;
17662;SDS011;8950;56.892;15.090;2023-06-22T06:55:21;4.90;;;3.40;;
17662;SDS011;8950;56.892;15.090;2023-06-22T06:57:50;4.22;;;3.65;;
17662;SDS011;8950;56.892;15.090;2023-06-22T07:00:18;8.10;;;4.20;;
17662;SDS011;8950;56.892;15.090;2023-06-22T07:02:44;5.45;;;3.92;;
17662;SDS011;8950;56.892;15.090;2023-06-22T07:05:13;6.18;;;4.15;;
17662;SDS011;8950;56.892;15.090;2023-06-22T07:07:39;5.13;;;4.30;;
17662;SDS011;8950;56.892;15.090;2023-06-22T07:10:06;5.35;;;3.95;;
17662;SDS011;8950;56.892;15.090;2023-06-22T07:12:35;5.80;;;3.65;;
17662;SDS011;8950;56.892;15.090;2023-06-22T07:15:02;4.55;;;4.15;;
17662;SDS011;8950;56.892;15.090;2023-06-22T07:17:28;4.80;;;3.70;;
17662;SDS011;8950;56.892;15.090;2023-06-22T07:19:55;5.93;;;4.20;;
17662;SDS011;8950;56.892;15.090;2023-06-22T07:22:21;3.35;;;3.05;;
17662;SDS011;8950;56.892;15.090;2023-06-22T07:24:48;6.90;;;4.70;;
17662;SDS011;8950;56.892;15.090;2023-06-22T07:27:14;4.55;;;4.15;;
17662;SDS011;8950;56.892;15.090;2023-06-22T07:29:45;5.88;;;4.47;;
17662;SDS011;8950;56.892;15.090;2023-06-22T07:32:11;10.00;;;4.38;;
17662;SDS011;8950;56.892;15.090;2023-06-22T07:34:38;4.40;;;4.00;;
17662;SDS011;8950;56.892;15.090;2023-06-22T07:37:04;4.57;;;4.07;;
17662;SDS011;8950;56.892;15.090;2023-06-22T07:39:31;4.85;;;4.18;;
17662;SDS011;8950;56.892;15.090;2023-06-22T07:41:57;5.38;;;4.78;;
17662;SDS011;8950;56.892;15.090;2023-06-22T07:44:24;5.78;;;4.10;;
17662;SDS011;8950;56.892;15.090;2023-06-22T07:46:52;5.95;;;4.40;;
17662;SDS011;8950;56.892;15.090;2023-06-22T07:49:18;5.35;;;4.60;;
17662;SDS011;8950;56.892;15.090;2023-06-22T07:51:44;4.90;;;4.50;;
17662;SDS011;8950;56.892;15.090;2023-06-22T07:54:11;5.10;;;4.55;;
17662;SDS011;8950;56.892;15.090;2023-06-22T07:56:37;5.20;;;4.00;;
17662;SDS011;8950;56.892;15.090;2023-06-22T07:59:03;6.45;;;4.63;;
17662;SDS011;8950;56.892;15.090;2023-06-22T08:01:30;5.03;;;4.25;;
17662;SDS011;8950;56.892;15.090;2023-06-22T08:03:58;5.72;;;4.60;;
17662;SDS011;8950;56.892;15.090;2023-06-22T08:06:24;5.20;;;4.70;;
17662;SDS011;8950;56.892;15.090;2023-06-22T08:08:50;5.75;;;4.65;;
17662;SDS011;8950;56.892;15.090;2023-06-22T08:11:19;6.13;;;4.57;;
17662;SDS011;8950;56.892;15.090;2023-06-22T08:13:47;4.63;;;4.15;;
17662;SDS011;8950;56.892;15.090;2023-06-22T08:16:13;5.30;;;4.40;;
17662;SDS011;8950;56.892;15.090;2023-06-22T08:18:42;6.57;;;4.30;;
17662;SDS011;8950;56.892;15.090;2023-06-22T08:21:10;5.45;;;4.82;;
17662;SDS011;8950;56.892;15.090;2023-06-22T08:23:37;5.38;;;4.18;;
17662;SDS011;8950;56.892;15.090;2023-06-22T08:26:03;7.05;;;4.85;;
17662;SDS011;8950;56.892;15.090;2023-06-22T08:28:30;3.65;;;3.35;;
17662;SDS011;8950;56.892;15.090;2023-06-22T08:30:56;4.35;;;3.80;;
17662;SDS011;8950;56.892;15.090;2023-06-22T08:33:23;3.63;;;3.03;;
17662;SDS011;8950;56.892;15.090;2023-06-22T08:35:53;4.20;;;3.75;;
17662;SDS011;8950;56.892;15.090;2023-06-22T08:38:21;4.70;;;4.00;;
17662;SDS011;8950;56.892;15.090;2023-06-22T08:40:47;4.78;;;4.00;;
17662;SDS011;8950;56.892;15.090;2023-06-22T08:43:13;5.03;;;4.10;;
17662;SDS011;8950;56.892;15.090;2023-06-22T08:45:40;4.55;;;3.88;;
17662;SDS011;8950;56.892;15.090;2023-06-22T08:48:06;5.15;;;4.50;;
17662;SDS011;8950;56.892;15.090;2023-06-22T08:50:33;4.82;;;3.90;;
17662;SDS011;8950;56.892;15.090;2023-06-22T08:52:59;4.45;;;4.05;;
17662;SDS011;8950;56.892;15.090;2023-06-22T08:55:27;5.07;;;3.22;;
17662;SDS011;8950;56.892;15.090;2023-06-22T08:57:53;3.80;;;3.42;;
17662;SDS011;8950;56.892;15.090;2023-06-22T09:00:20;5.25;;;4.13;;
17662;SDS011;8950;56.892;15.090;2023-06-22T09:02:47;4.63;;;4.18;;
17662;SDS011;8950;56.892;15.090;2023-06-22T09:05:13;3.90;;;3.60;;
17662;SDS011;8950;56.892;15.090;2023-06-22T09:07:40;6.45;;;4.60;;
17662;SDS011;8950;56.892;15.090;2023-06-22T09:10:07;4.35;;;3.78;;
17662;SDS011;8950;56.892;15.090;2023-06-22T09:12:35;7.22;;;4.20;;
17662;SDS011;8950;56.892;15.090;2023-06-22T09:15:03;5.55;;;4.05;;
17662;SDS011;8950;56.892;15.090;2023-06-22T09:17:29;4.22;;;3.80;;
17662;SDS011;8950;56.892;15.090;2023-06-22T09:19:56;4.22;;;3.83;;
17662;SDS011;8950;56.892;15.090;2023-06-22T09:22:22;5.25;;;3.97;;
17662;SDS011;8950;56.892;15.090;2023-06-22T09:24:54;4.88;;;3.75;;
17662;SDS011;8950;56.892;15.090;2023-06-22T09:27:20;5.18;;;4.45;;
17662;SDS011;8950;56.892;15.090;2023-06-22T09:29:48;5.88;;;4.22;;
17662;SDS011;8950;56.892;15.090;2023-06-22T09:32:15;5.20;;;4.70;;
17662;SDS011;8950;56.892;15.090;2023-06-22T09:34:41;7.95;;;4.40;;
17662;SDS011;8950;56.892;15.090;2023-06-22T09:37:07;4.28;;;3.88;;
17662;SDS011;8950;56.892;15.090;2023-06-22T09:39:34;7.47;;;4.85;;
17662;SDS011;8950;56.892;15.090;2023-06-22T09:42:01;4.32;;;3.90;;
17662;SDS011;8950;56.892;15.090;2023-06-22T09:44:27;4.90;;;3.88;;
17662;SDS011;8950;56.892;15.090;2023-06-22T09:46:56;4.32;;;3.92;;
17662;SDS011;8950;56.892;15.090;2023-06-22T09:49:23;4.30;;;3.90;;
17662;SDS011;8950;56.892;15.090;2023-06-22T09:51:49;4.95;;;3.92;;
17662;SDS011;8950;56.892;15.090;2023-06-22T09:54:16;6.03;;;4.45;;
17662;SDS011;8950;56.892;15.090;2023-06-22T09:56:42;4.32;;;3.92;;
17662;SDS011;8950;56.892;15.090;2023-06-22T09:59:09;5.00;;;3.85;;
17662;SDS011;8950;56.892;15.090;2023-06-22T10:01:35;6.50;;;3.70;;
17662;SDS011;8950;56.892;15.090;2023-06-22T10:04:03;4.43;;;4.00;;
17662;SDS011;8950;56.892;15.090;2023-06-22T10:06:29;4.88;;;3.03;;
17662;SDS011;8950;56.892;15.090;2023-06-22T10:08:56;3.40;;;3.00;;
17662;SDS011;8950;56.892;15.090;2023-06-22T10:11:22;4.20;;;3.80;;
17662;SDS011;8950;56.892;15.090;2023-06-22T10:13:54;4.05;;;3.15;;
17662;SDS011;8950;56.892;15.090;2023-06-22T10:16:20;3.22;;;2.92;;
17662;SDS011;8950;56.892;15.090;2023-06-22T10:18:46;4.95;;;3.47;;
17662;SDS011;8950;56.892;15.090;2023-06-22T10:21:14;3.95;;;3.53;;
17662;SDS011;8950;56.892;15.090;2023-06-22T10:23:41;5.53;;;3.55;;
17662;SDS011;8950;56.892;15.090;2023-06-22T10:26:07;3.88;;;3.40;;
17662;SDS011;8950;56.892;15.090;2023-06-22T10:28:34;4.82;;;3.70;;
17662;SDS011;8950;56.892;15.090;2023-06-22T10:31:00;3.95;;;3.10;;
17662;SDS011;8950;56.892;15.090;2023-06-22T10:33:26;4.65;;;3.60;;
17662;SDS011;8950;56.892;15.090;2023-06-22T10:35:53;4.75;;;3.50;;
17662;SDS011;8950;56.892;15.090;2023-06-22T10:38:21;4.45;;;3.22;;
17662;SDS011;8950;56.892;15.090;2023-06-22T10:40:47;4.60;;;3.50;;
17662;SDS011;8950;56.892;15.090;2023-06-22T10:43:14;5.45;;;3.80;;
17662;SDS011;8950;56.892;15.090;2023-06-22T10:45:40;5.45;;;3.55;;
17662;SDS011;8950;56.892;15.090;2023-06-22T10:48:06;3.90;;;3.15;;
17662;SDS011;8950;56.892;15.090;2023-06-22T10:50:33;4.05;;;3.28;;
17662;SDS011;8950;56.892;15.090;2023-06-22T10:53:02;3.28;;;2.53;;
17662;SDS011;8950;56.892;15.090;2023-06-22T10:55:30;4.53;;;3.10;;
17662;SDS011;8950;56.892;15.090;2023-06-22T10:57:56;4.40;;;2.90;;
17662;SDS011;8950;56.892;15.090;2023-06-22T11:00:23;4.13;;;3.50;;
17662;SDS011;8950;56.892;15.090;2023-06-22T11:02:49;3.53;;;3.10;;
17662;SDS011;8950;56.892;15.090;2023-06-22T11:05:16;3.28;;;2.63;;
17662;SDS011;8950;56.892;15.090;2023-06-22T11:07:43;4.32;;;3.10;;
17662;SDS011;8950;56.892;15.090;2023-06-22T11:10:09;4.03;;;2.92;;
17662;SDS011;8950;56.892;15.090;2023-06-22T11:12:37;4.15;;;3.50;;
17662;SDS011;8950;56.892;15.090;2023-06-22T11:15:04;6.55;;;3.30;;
17662;SDS011;8950;56.892;15.090;2023-06-22T11:17:31;4.30;;;3.20;;
17662;SDS011;8950;56.892;15.090;2023-06-22T11:19:57;3.17;;;2.88;;
17662;SDS011;8950;56.892;15.090;2023-06-22T11:22:25;4.93;;;3.15;;
17662;SDS011;8950;56.892;15.090;2023-06-22T11:24:51;4.25;;;3.30;;
17662;SDS011;8950;56.892;15.090;2023-06-22T11:27:18;3.83;;;3.05;;
17662;SDS011;8950;56.892;15.090;2023-06-22T11:29:46;4.22;;;3.38;;
17662;SDS011;8950;56.892;15.090;2023-06-22T11:32:12;3.78;;;3.20;;
17662;SDS011;8950;56.892;15.090;2023-06-22T11:34:39;2.83;;;2.53;;
17662;SDS011;8950;56.892;15.090;2023-06-22T11:37:06;5.20;;;2.72;;
17662;SDS011;8950;56.892;15.090;2023-06-22T11:39:32;4.78;;;2.97;;
17662;SDS011;8950;56.892;15.090;2023-06-22T11:41:59;5.05;;;3.28;;
17662;SDS011;8950;56.892;15.090;2023-06-22T11:44:25;3.42;;;2.85;;
17662;SDS011;8950;56.892;15.090;2023-06-22T11:46:53;3.28;;;2.97;;
17662;SDS011;8950;56.892;15.090;2023-06-22T11:49:19;4.32;;;3.10;;
17662;SDS011;8950;56.892;15.090;2023-06-22T11:51:45;4.45;;;2.92;;
17662;SDS011;8950;56.892;15.090;2023-06-22T11:54:12;3.42;;;3.13;;
17662;SDS011;8950;56.892;15.090;2023-06-22T11:56:38;6.20;;;2.90;;
17662;SDS011;8950;56.892;15.090;2023-06-22T11:59:04;3.10;;;2.80;;
17662;SDS011;8950;56.892;15.090;2023-06-22T12:01:31;5.10;;;2.80;;
17662;SDS011;8950;56.892;15.090;2023-06-22T12:04:00;3.15;;;2.58;;
17662;SDS011;8950;56.892;15.090;2023-06-22T12:06:26;4.32;;;3.17;;
17662;SDS011;8950;56.892;15.090;2023-06-22T12:08:52;3.40;;;2.70;;
17662;SDS011;8950;56.892;15.090;2023-06-22T12:11:19;4.05;;;2.67;;
17662;SDS011;8950;56.892;15.090;2023-06-22T12:13:45;3.17;;;2.88;;
17662;SDS011;8950;56.892;15.090;2023-06-22T12:16:12;3.13;;;2.75;;
17662;SDS011;8950;56.892;15.090;2023-06-22T12:18:38;3.42;;;3.10;;
17662;SDS011;8950;56.892;15.090;2023-06-22T12:21:06;3.35;;;2.90;;
17662;SDS011;8950;56.892;15.090;2023-06-22T12:23:32;3.30;;;3.00;;
17662;SDS011;8950;56.892;15.090;2023-06-22T12:25:59;3.78;;;2.95;;
17662;SDS011;8950;56.892;15.090;2023-06-22T12:28:26;3.22;;;2.72;;
17662;SDS011;8950;56.892;15.090;2023-06-22T12:30:53;4.63;;;3.17;;
17662;SDS011;8950;56.892;15.090;2023-06-22T12:33:20;3.95;;;2.95;;
17662;SDS011;8950;56.892;15.090;2023-06-22T12:35:46;3.58;;;3.15;;
17662;SDS011;8950;56.892;15.090;2023-06-22T12:38:15;3.70;;;2.67;;
17662;SDS011;8950;56.892;15.090;2023-06-22T12:40:41;4.25;;;3.35;;
17662;SDS011;8950;56.892;15.090;2023-06-22T12:43:08;3.08;;;2.83;;
17662;SDS011;8950;56.892;15.090;2023-06-22T12:45:34;4.22;;;3.00;;
17662;SDS011;8950;56.892;15.090;2023-06-22T12:48:01;3.47;;;2.80;;
17662;SDS011;8950;56.892;15.090;2023-06-22T12:50:27;3.10;;;2.80;;
17662;SDS011;8950;56.892;15.090;2023-06-22T12:52:53;3.28;;;2.97;;
17662;SDS011;8950;56.892;15.090;2023-06-22T12:55:21;2.80;;;2.50;;
17662;SDS011;8950;56.892;15.090;2023-06-22T12:57:47;5.60;;;3.53;;
17662;SDS011;8950;56.892;15.090;2023-06-22T13:00:14;3.45;;;3.15;;
17662;SDS011;8950;56.892;15.090;2023-06-22T13:02:41;2.50;;;2.30;;
17662;SDS011;8950;56.892;15.090;2023-06-22T13:05:08;3.25;;;2.95;;
17662;SDS011;8950;56.892;15.090;2023-06-22T13:07:34;3.42;;;2.40;;
17662;SDS011;8950;56.892;15.090;2023-06-22T13:10:01;2.80;;;2.60;;
17662;SDS011;8950;56.892;15.090;2023-06-22T13:12:29;3.05;;;2.78;;
17662;SDS011;8950;56.892;15.090;2023-06-22T13:14:55;2.88;;;2.50;;
17662;SDS011;8950;56.892;15.090;2023-06-22T13:17:22;3.15;;;2.78;;
17662;SDS011;8950;56.892;15.090;2023-06-22T13:19:48;3.00;;;2.70;;
17662;SDS011;8950;56.892;15.090;2023-06-22T13:22:28;3.55;;;2.83;;
17662;SDS011;8950;56.892;15.090;2023-06-22T13:24:55;3.47;;;3.10;;
17662;SDS011;8950;56.892;15.090;2023-06-22T13:27:21;2.92;;;2.70;;
17662;SDS011;8950;56.892;15.090;2023-06-22T13:29:49;3.28;;;2.97;;
17662;SDS011;8950;56.892;15.090;2023-06-22T13:32:15;4.55;;;2.90;;
17662;SDS011;8950;56.892;15.090;2023-06-22T13:34:42;4.05;;;3.65;;
17662;SDS011;8950;56.892;15.090;2023-06-22T13:37:10;4.18;;;3.08;;
17662;SDS011;8950;56.892;15.090;2023-06-22T13:39:36;4.25;;;3.15;;
17662;SDS011;8950;56.892;15.090;2023-06-22T13:42:03;4.43;;;2.63;;
17662;SDS011;8950;56.892;15.090;2023-06-22T13:44:29;3.83;;;3.22;;
17662;SDS011;8950;56.892;15.090;2023-06-22T13:46:57;3.85;;;3.00;;
17662;SDS011;8950;56.892;15.090;2023-06-22T13:49:23;3.72;;;3.10;;
17662;SDS011;8950;56.892;15.090;2023-06-22T13:51:50;3.25;;;2.95;;
17662;SDS011;8950;56.892;15.090;2023-06-22T13:54:16;4.20;;;3.13;;
17662;SDS011;8950;56.892;15.090;2023-06-22T13:56:43;3.50;;;2.90;;
17662;SDS011;8950;56.892;15.090;2023-06-22T13:59:09;3.00;;;2.70;;
17662;SDS011;8950;56.892;15.090;2023-06-22T14:01:36;3.75;;;2.90;;
17662;SDS011;8950;56.892;15.090;2023-06-22T14:04:05;3.22;;;2.80;;
17662;SDS011;8950;56.892;15.090;2023-06-22T14:06:32;3.75;;;2.80;;
17662;SDS011;8950;56.892;15.090;2023-06-22T14:08:58;3.25;;;2.92;;
17662;SDS011;8950;56.892;15.090;2023-06-22T14:11:25;4.47;;;3.10;;
17662;SDS011;8950;56.892;15.090;2023-06-22T14:13:51;3.30;;;2.70;;
17662;SDS011;8950;56.892;15.090;2023-06-22T14:16:18;3.30;;;2.90;;
17662;SDS011;8950;56.892;15.090;2023-06-22T14:18:45;2.92;;;2.63;;
17662;SDS011;8950;56.892;15.090;2023-06-22T14:21:12;3.17;;;2.88;;
17662;SDS011;8950;56.892;15.090;2023-06-22T14:23:39;2.92;;;2.72;;
17662;SDS011;8950;56.892;15.090;2023-06-22T14:26:05;3.20;;;2.92;;
17662;SDS011;8950;56.892;15.090;2023-06-22T14:28:32;3.38;;;3.10;;
17662;SDS011;8950;56.892;15.090;2023-06-22T14:30:58;3.67;;;2.92;;
17662;SDS011;8950;56.892;15.090;2023-06-22T14:33:24;3.38;;;2.67;;
17662;SDS011;8950;56.892;15.090;2023-06-22T14:35:51;5.88;;;3.00;;
17662;SDS011;8950;56.892;15.090;2023-06-22T14:38:19;2.92;;;2.72;;
17662;SDS011;8950;56.892;15.090;2023-06-22T14:40:46;4.97;;;2.88;;
17662;SDS011;8950;56.892;15.090;2023-06-22T14:43:12;3.15;;;2.85;;
17662;SDS011;8950;56.892;15.090;2023-06-22T14:45:39;3.05;;;2.72;;